CXA147 ZSFZ-ZPPP
Flight info
| Callsign | CXA147 |
|---|---|
| Flight time | N/A |
| Altitude | 361 |
| Route | DOV91D DOVPU W643 ATSAB A470 IKATA/K0891S0980 A470 BEBEM R200 LH R339 BSE A599 LXI LXI2J |
| Aircraft | B738/M-SDE2E3GHIJ3J4J5LM1ORWXY/LB1D1 |
Departure
| Time | 2026-04-24 11:46 |
|---|---|
| Airport | Fuzhou Changle International Airport (ZSFZ) |
Arrival
| Time | N/A |
|---|---|
| Airport | Kunming Changshui International Airport (ZPPP) |
| Time | Latitude | Longitude | Altitude | Speed | Heading |
|---|---|---|---|---|---|
| 2026-04-24 11:32 | 25.93386 | 119.66830 | 22 ft | 0 kts | 117° |
| 2026-04-24 11:34 | 25.93389 | 119.66824 | 22 ft | 4 kts | 118° |
| 2026-04-24 11:35 | 25.93403 | 119.66799 | 23 ft | 4 kts | 129° |
| 2026-04-24 11:35 | 25.93422 | 119.66778 | 22 ft | 4 kts | 146° |
| 2026-04-24 11:35 | 25.93446 | 119.66766 | 22 ft | 4 kts | 173° |
| 2026-04-24 11:35 | 25.93468 | 119.66768 | 25 ft | 1 kts | 207° |
| 2026-04-24 11:38 | 25.93465 | 119.66766 | 25 ft | 2 kts | 207° |
| 2026-04-24 11:38 | 25.93435 | 119.66749 | 22 ft | 9 kts | 206° |
| 2026-04-24 11:38 | 25.93367 | 119.66712 | 24 ft | 8 kts | 206° |
| 2026-04-24 11:38 | 25.93343 | 119.66668 | 23 ft | 7 kts | 276° |
| 2026-04-24 11:39 | 25.93346 | 119.66616 | 22 ft | 7 kts | 240° |
| 2026-04-24 11:39 | 25.93306 | 119.66588 | 24 ft | 7 kts | 206° |
| 2026-04-24 11:39 | 25.93264 | 119.66564 | 22 ft | 7 kts | 207° |
| 2026-04-24 11:39 | 25.93223 | 119.66541 | 22 ft | 7 kts | 207° |
| 2026-04-24 11:40 | 25.93182 | 119.66518 | 22 ft | 6 kts | 207° |
| 2026-04-24 11:40 | 25.93141 | 119.66495 | 23 ft | 7 kts | 207° |
| 2026-04-24 11:40 | 25.93109 | 119.66458 | 25 ft | 7 kts | 269° |
| 2026-04-24 11:40 | 25.93131 | 119.66406 | 23 ft | 8 kts | 296° |
| 2026-04-24 11:41 | 25.93113 | 119.66359 | 23 ft | 7 kts | 208° |
| 2026-04-24 11:41 | 25.93064 | 119.66332 | 22 ft | 8 kts | 207° |
| 2026-04-24 11:41 | 25.93012 | 119.66302 | 24 ft | 9 kts | 207° |
| 2026-04-24 11:41 | 25.92958 | 119.66272 | 22 ft | 9 kts | 207° |
| 2026-04-24 11:42 | 25.92907 | 119.66242 | 23 ft | 8 kts | 207° |
| 2026-04-24 11:42 | 25.92855 | 119.66213 | 22 ft | 9 kts | 206° |
| 2026-04-24 11:42 | 25.92794 | 119.66180 | 23 ft | 11 kts | 207° |
| 2026-04-24 11:42 | 25.92718 | 119.66137 | 21 ft | 13 kts | 207° |
| 2026-04-24 11:43 | 25.92628 | 119.66086 | 25 ft | 15 kts | 207° |
| 2026-04-24 11:43 | 25.92528 | 119.66029 | 22 ft | 17 kts | 207° |
| 2026-04-24 11:43 | 25.92417 | 119.65966 | 25 ft | 18 kts | 207° |
| 2026-04-24 11:43 | 25.92305 | 119.65903 | 23 ft | 18 kts | 206° |
| 2026-04-24 11:44 | 25.92196 | 119.65842 | 24 ft | 16 kts | 206° |
| 2026-04-24 11:44 | 25.92105 | 119.65791 | 22 ft | 9 kts | 206° |
| 2026-04-24 11:44 | 25.92078 | 119.65731 | 22 ft | 10 kts | 293° |
| 2026-04-24 11:44 | 25.92114 | 119.65655 | 22 ft | 12 kts | 297° |
| 2026-04-24 11:45 | 25.92135 | 119.65592 | 21 ft | 6 kts | 296° |
| 2026-04-24 11:45 | 25.92164 | 119.65593 | 22 ft | 5 kts | 29° |
| 2026-04-24 11:45 | 25.92279 | 119.65665 | 22 ft | 49 kts | 28° |
| 2026-04-24 11:45 | 25.92787 | 119.65951 | 18 ft | 113 kts | 27° |
| 2026-04-24 11:46 | 25.93650 | 119.66453 | 48 ft | 162 kts | 28° |
| 2026-04-24 11:46 | 25.94746 | 119.67085 | 364 ft | 187 kts | 27° |
| 2026-04-24 11:46 | 25.95930 | 119.67734 | 1105 ft | 192 kts | 26° |
| 2026-04-24 11:46 | 25.97129 | 119.68395 | 1878 ft | 192 kts | 28° |
| 2026-04-24 11:47 | 25.98313 | 119.69066 | 2641 ft | 191 kts | 28° |
| 2026-04-24 11:47 | 25.99476 | 119.69737 | 3355 ft | 191 kts | 28° |
| 2026-04-24 11:47 | 26.00649 | 119.70465 | 4052 ft | 192 kts | 37° |
| 2026-04-24 11:47 | 26.01368 | 119.71701 | 4604 ft | 201 kts | 77° |
| 2026-04-24 11:48 | 26.01252 | 119.73273 | 5124 ft | 209 kts | 115° |
| 2026-04-24 11:48 | 26.00311 | 119.74495 | 5588 ft | 213 kts | 153° |
| 2026-04-24 11:48 | 25.98868 | 119.74882 | 6024 ft | 219 kts | 180° |
| 2026-04-24 11:48 | 25.97283 | 119.74935 | 6302 ft | 242 kts | 179° |
| 2026-04-24 11:49 | 25.95509 | 119.75009 | 6527 ft | 268 kts | 179° |
| 2026-04-24 11:49 | 25.93559 | 119.75096 | 6730 ft | 293 kts | 179° |
| 2026-04-24 11:49 | 25.91434 | 119.75185 | 6925 ft | 318 kts | 182° |
| 2026-04-24 11:49 | 25.89288 | 119.74682 | 7507 ft | 308 kts | 204° |
| 2026-04-24 11:50 | 25.87415 | 119.73699 | 7794 ft | 289 kts | 208° |
| 2026-04-24 11:50 | 25.85664 | 119.72685 | 7864 ft | 280 kts | 210° |
| 2026-04-24 11:50 | 25.83959 | 119.71687 | 7864 ft | 274 kts | 210° |
| 2026-04-24 11:50 | 25.82277 | 119.70711 | 7867 ft | 272 kts | 209° |
| 2026-04-24 11:51 | 25.80591 | 119.69743 | 7880 ft | 274 kts | 209° |
| 2026-04-24 11:51 | 25.78885 | 119.68772 | 7875 ft | 276 kts | 209° |
| 2026-04-24 11:51 | 25.77171 | 119.67800 | 7877 ft | 277 kts | 208° |
| 2026-04-24 11:51 | 25.75453 | 119.66832 | 7892 ft | 277 kts | 208° |
| 2026-04-24 11:52 | 25.73729 | 119.65862 | 7866 ft | 278 kts | 208° |
| 2026-04-24 11:52 | 25.72009 | 119.64896 | 7862 ft | 277 kts | 208° |
| 2026-04-24 11:52 | 25.70292 | 119.63932 | 7859 ft | 276 kts | 208° |
| 2026-04-24 11:52 | 25.68669 | 119.62817 | 7833 ft | 273 kts | 227° |
| 2026-04-24 11:53 | 25.67571 | 119.61135 | 7862 ft | 270 kts | 242° |
| 2026-04-24 11:53 | 25.66723 | 119.59280 | 7864 ft | 269 kts | 245° |
| 2026-04-24 11:53 | 25.65929 | 119.57392 | 8040 ft | 272 kts | 245° |
| 2026-04-24 11:53 | 25.65132 | 119.55480 | 8750 ft | 274 kts | 245° |
| 2026-04-24 11:54 | 25.64330 | 119.53573 | 9598 ft | 273 kts | 244° |
| 2026-04-24 11:54 | 25.63532 | 119.51693 | 10319 ft | 276 kts | 244° |
| 2026-04-24 11:54 | 25.62669 | 119.49676 | 10550 ft | 298 kts | 244° |
| 2026-04-24 11:54 | 25.61757 | 119.47556 | 10719 ft | 319 kts | 244° |
| 2026-04-24 11:55 | 25.60769 | 119.45268 | 10867 ft | 340 kts | 244° |
| 2026-04-24 11:55 | 25.59718 | 119.42841 | 11003 ft | 359 kts | 244° |
| 2026-04-24 11:55 | 25.58613 | 119.40290 | 11144 ft | 375 kts | 244° |
| 2026-04-24 11:55 | 25.57470 | 119.37655 | 11504 ft | 383 kts | 244° |
| 2026-04-24 11:56 | 25.56312 | 119.34986 | 12027 ft | 386 kts | 244° |
| 2026-04-24 11:56 | 25.55145 | 119.32301 | 12555 ft | 388 kts | 244° |
| 2026-04-24 11:56 | 25.53955 | 119.29605 | 13098 ft | 392 kts | 242° |
| 2026-04-24 11:56 | 25.52308 | 119.27182 | 13571 ft | 398 kts | 226° |
| 2026-04-24 11:57 | 25.50344 | 119.25018 | 14083 ft | 400 kts | 227° |
| 2026-04-24 11:57 | 25.48421 | 119.22826 | 14859 ft | 390 kts | 229° |
| 2026-04-24 11:57 | 25.46558 | 119.20668 | 15549 ft | 387 kts | 229° |
| 2026-04-24 11:57 | 25.44702 | 119.18498 | 15946 ft | 391 kts | 229° |
| 2026-04-24 11:58 | 25.42829 | 119.16305 | 16350 ft | 393 kts | 229° |
| 2026-04-24 11:58 | 25.40949 | 119.14108 | 16830 ft | 393 kts | 229° |
| 2026-04-24 11:58 | 25.39072 | 119.11920 | 17340 ft | 392 kts | 229° |
| 2026-04-24 11:58 | 25.37195 | 119.09735 | 17809 ft | 392 kts | 229° |
| 2026-04-24 11:59 | 25.35309 | 119.07544 | 18239 ft | 393 kts | 230° |
| 2026-04-24 11:59 | 25.33423 | 119.05354 | 18605 ft | 394 kts | 229° |
| 2026-04-24 11:59 | 25.31533 | 119.03158 | 18894 ft | 396 kts | 229° |
| 2026-04-24 11:59 | 25.29627 | 119.00945 | 19157 ft | 399 kts | 229° |
| 2026-04-24 12:00 | 25.27730 | 118.98745 | 19463 ft | 401 kts | 229° |
| 2026-04-24 12:00 | 25.25934 | 118.96400 | 19747 ft | 400 kts | 239° |
| 2026-04-24 12:00 | 25.24647 | 118.93691 | 20165 ft | 396 kts | 245° |
| 2026-04-24 12:00 | 25.23402 | 118.90994 | 20575 ft | 394 kts | 244° |
| 2026-04-24 12:01 | 25.22119 | 118.88306 | 20823 ft | 397 kts | 243° |
| 2026-04-24 12:01 | 25.20817 | 118.85604 | 21037 ft | 400 kts | 243° |
| 2026-04-24 12:01 | 25.19507 | 118.82894 | 21297 ft | 401 kts | 243° |
| 2026-04-24 12:01 | 25.18189 | 118.80170 | 21550 ft | 403 kts | 242° |
| 2026-04-24 12:02 | 25.16866 | 118.77436 | 21775 ft | 405 kts | 242° |
| 2026-04-24 12:02 | 25.15541 | 118.74685 | 22003 ft | 406 kts | 242° |
| 2026-04-24 12:02 | 25.14211 | 118.71936 | 22263 ft | 407 kts | 242° |
| 2026-04-24 12:02 | 25.12860 | 118.69178 | 22430 ft | 409 kts | 242° |
| 2026-04-24 12:03 | 25.11521 | 118.66403 | 22625 ft | 410 kts | 242° |
| 2026-04-24 12:03 | 25.10171 | 118.63644 | 23020 ft | 407 kts | 240° |
| 2026-04-24 12:03 | 25.08599 | 118.61069 | 23258 ft | 408 kts | 233° |
| 2026-04-24 12:03 | 25.06682 | 118.58708 | 23282 ft | 415 kts | 227° |
| 2026-04-24 12:04 | 25.04639 | 118.56434 | 23372 ft | 419 kts | 227° |
| 2026-04-24 12:04 | 25.02588 | 118.54124 | 23480 ft | 423 kts | 227° |
| 2026-04-24 12:04 | 25.00547 | 118.51792 | 23686 ft | 423 kts | 227° |
| 2026-04-24 12:04 | 24.98503 | 118.49446 | 23827 ft | 425 kts | 228° |
| 2026-04-24 12:05 | 24.96458 | 118.47097 | 23984 ft | 426 kts | 228° |
| 2026-04-24 12:05 | 24.94403 | 118.44741 | 24148 ft | 426 kts | 228° |
| 2026-04-24 12:05 | 24.92346 | 118.42386 | 24313 ft | 427 kts | 227° |
| 2026-04-24 12:05 | 24.90283 | 118.40032 | 24453 ft | 428 kts | 228° |
| 2026-04-24 12:06 | 24.88243 | 118.37700 | 24598 ft | 429 kts | 228° |
| 2026-04-24 12:06 | 24.86162 | 118.35312 | 24931 ft | 422 kts | 228° |
| 2026-04-24 12:06 | 24.84151 | 118.33008 | 25054 ft | 425 kts | 228° |
| 2026-04-24 12:06 | 24.82088 | 118.30659 | 25102 ft | 429 kts | 228° |
| 2026-04-24 12:07 | 24.80008 | 118.28293 | 25171 ft | 432 kts | 228° |
| 2026-04-24 12:07 | 24.77912 | 118.25907 | 25255 ft | 434 kts | 228° |
| 2026-04-24 12:07 | 24.75815 | 118.23520 | 25397 ft | 434 kts | 228° |
| 2026-04-24 12:07 | 24.73720 | 118.21135 | 25623 ft | 432 kts | 228° |
| 2026-04-24 12:08 | 24.71639 | 118.18767 | 25892 ft | 430 kts | 228° |
| 2026-04-24 12:08 | 24.69559 | 118.16402 | 26156 ft | 428 kts | 228° |
| 2026-04-24 12:08 | 24.67498 | 118.14053 | 26373 ft | 427 kts | 229° |
| 2026-04-24 12:08 | 24.65440 | 118.11702 | 26573 ft | 427 kts | 229° |
| 2026-04-24 12:09 | 24.63381 | 118.09349 | 26741 ft | 427 kts | 229° |
| 2026-04-24 12:09 | 24.61321 | 118.06987 | 26854 ft | 429 kts | 229° |
| 2026-04-24 12:09 | 24.59290 | 118.04680 | 27723 ft | 411 kts | 229° |
| 2026-04-24 12:09 | 24.57328 | 118.02452 | 28402 ft | 402 kts | 229° |
| 2026-04-24 12:10 | 24.55390 | 118.00219 | 28538 ft | 405 kts | 230° |
| 2026-04-24 12:10 | 24.53474 | 117.97925 | 28572 ft | 409 kts | 231° |
| 2026-04-24 12:10 | 24.51564 | 117.95600 | 28728 ft | 410 kts | 231° |
| 2026-04-24 12:11 | 24.47813 | 117.90954 | 29410 ft | 403 kts | 231° |
| 2026-04-24 12:11 | 24.45933 | 117.88689 | 29788 ft | 400 kts | 231° |
| 2026-04-24 12:11 | 24.44078 | 117.86467 | 30096 ft | 399 kts | 231° |
| 2026-04-24 12:11 | 24.42207 | 117.84225 | 30332 ft | 398 kts | 231° |
| 2026-04-24 12:12 | 24.40336 | 117.81979 | 30451 ft | 400 kts | 231° |
| 2026-04-24 12:12 | 24.36544 | 117.77414 | 30628 ft | 406 kts | 231° |
| 2026-04-24 12:12 | 24.34648 | 117.75132 | 30932 ft | 403 kts | 232° |
| 2026-04-24 12:13 | 24.32775 | 117.72873 | 31316 ft | 399 kts | 232° |
| 2026-04-24 12:13 | 24.30905 | 117.70626 | 31550 ft | 398 kts | 232° |
| 2026-04-24 12:13 | 24.29034 | 117.68379 | 31714 ft | 400 kts | 232° |
| 2026-04-24 12:13 | 24.27163 | 117.66131 | 31922 ft | 399 kts | 232° |
| 2026-04-24 12:14 | 24.25315 | 117.63875 | 32259 ft | 395 kts | 232° |
| 2026-04-24 12:14 | 24.23465 | 117.61651 | 32508 ft | 395 kts | 232° |
| 2026-04-24 12:14 | 24.21602 | 117.59438 | 32710 ft | 395 kts | 232° |
| 2026-04-24 12:14 | 24.19740 | 117.57222 | 32931 ft | 395 kts | 232° |
| 2026-04-24 12:15 | 24.17887 | 117.55008 | 33129 ft | 394 kts | 232° |
| 2026-04-24 12:15 | 24.14153 | 117.50533 | 33366 ft | 399 kts | 232° |
| 2026-04-24 12:15 | 24.12184 | 117.48393 | 33678 ft | 399 kts | 229° |
| 2026-04-24 12:16 | 24.10157 | 117.46392 | 34101 ft | 395 kts | 227° |
| 2026-04-24 12:16 | 24.08078 | 117.44396 | 34435 ft | 391 kts | 227° |
| 2026-04-24 12:16 | 24.06009 | 117.42471 | 34689 ft | 389 kts | 227° |
| 2026-04-24 12:16 | 24.04019 | 117.40544 | 34931 ft | 386 kts | 228° |
| 2026-04-24 12:17 | 24.02024 | 117.38581 | 35131 ft | 385 kts | 228° |
| 2026-04-24 12:17 | 24.00030 | 117.36616 | 35246 ft | 387 kts | 228° |
| 2026-04-24 12:17 | 23.98018 | 117.34634 | 35286 ft | 390 kts | 227° |
| 2026-04-24 12:18 | 23.93927 | 117.30690 | 35403 ft | 394 kts | 228° |
| 2026-04-24 12:18 | 23.89794 | 117.26723 | 35686 ft | 395 kts | 227° |
| 2026-04-24 12:19 | 23.85838 | 117.22573 | 35741 ft | 390 kts | 232° |
| 2026-04-24 12:19 | 23.83853 | 117.20540 | 35960 ft | 394 kts | 224° |
| 2026-04-24 12:19 | 23.81701 | 117.18686 | 36129 ft | 392 kts | 225° |
| 2026-04-24 12:20 | 23.77617 | 117.14744 | 36144 ft | 390 kts | 228° |
| 2026-04-24 12:20 | 23.73808 | 117.10595 | 36154 ft | 384 kts | 231° |
| 2026-04-24 12:21 | 23.70128 | 117.06375 | 36113 ft | 383 kts | 231° |
| 2026-04-24 12:21 | 23.67066 | 117.02875 | 36147 ft | 386 kts | 231° |